メインページ
METAR-TAF:

METAR-TAF

空港 :

バーレーン国際空港

バーレーン, バーレーン

緯度: 26-16N, 経度: 050-39E, 海抜: 2m

現時点の気象観測

当レポートは11分前の06:00(UTC)に作成
の風 8kt
気温 22°C
湿度 60%
気圧 1015 hPa
視程10km以上
1,500メートル以下は雲なし、積乱雲なし

METAR: OBBI 210600Z 36008KT CAVOK 22/14 Q1015 NOSIG

時間: 09:11 (06:11 UTC)

予報

当レポートは1時間11分前の05:00(UTC)に作成
予報は21日の 06時(UTC)から 22日の 12時(UTC)まで有効
の風 12kt
視程10km以上
1,500メートル以下は雲なし、積乱雲なし
確率 30% :
21日の 12時(UTC)から 21日の 18時(UTC)まで一時的に
北/北西の風 20kt、最大35ktの突風を伴う

TAF: OBBI 210500Z 2106/2212 36012KT CAVOK PROB30 TEMPO 2112/2118 33020G35KT

4,000以上の空港の気象観測と天気予報(METAR報とTAF報)

利用可能な観測所は地図上に黄色い丸と赤い丸で示す。

丸の上にカーソルを重ねると観測所名を参照できる。

次にクリックすると気象観測と天気予報を参照できる。

マップの切り替え:黒色「×」印の緑ボタンをクリックして拡大、「-」印の緑ボタンをクリックして縮小、緑色の三角印をクリックして隣りの地図に切り替え


METAR-TAF: